Mt Bachelor previous 24hr weather report
        updated 10/25/2014 14:08
Year Month Date Time Base Pmx Smt Pmx Smt Pmx Pmx Pmx Smt Smt Smt Srx Srx Srx
Temp Temp Temp RH RH wind wind wind wind wind wind wind wind wind
6300' 7800' 9000' 7800' 9000' avg max dir avg max dir avg max dir
1 2014 10 25 10/25/2014 1400 45.6 36.5 92 -6999 62 213
2 2014 10 25 10/25/2014 1300 49.6 38.1 80 20 67 185
3 2014 10 25 10/25/2014 1200 47 37.1 79 16 39 133
4 2014 10 25 10/25/2014 1100 44.4 34.9 83 20 54 106
5 2014 10 25 10/25/2014 1000 42.4 34.7 87 25 64 77
6 2014 10 25 10/25/2014 900 42.2 34.8 95 22 52 72
7 2014 10 25 10/25/2014 800 42.6 34.9 96 9 34 120
8 2014 10 25 10/25/2014 700 42.4 35.7 91 23 45 79
9 2014 10 25 10/25/2014 600 42.5 36.2 85 22 39 50
10 2014 10 25 10/25/2014 500 43.1 37.3 80 21 39 68
11 2014 10 25 10/25/2014 400 41.4 37.9 77 24 42 51
12 2014 10 25 10/25/2014 300 41.9 38.6 73 24 42 62
13 2014 10 25 10/25/2014 200 42.4 38.8 67 22 46 69
14 2014 10 25 10/25/2014 100 43.6 39.4 68 24 41 68
15 2014 10 24 10/24/2014 2400 43 39.6 64 20 34 57
16 2014 10 24 10/24/2014 2300 43.1 40.4 65 17 30 69
17 2014 10 24 10/24/2014 2200 43.8 41.8 60 23 49 71
18 2014 10 24 10/24/2014 2100 44 40.9 67 24 37 52
19 2014 10 24 10/24/2014 2000 43.3 40.1 86 20 31 38
20 2014 10 24 10/24/2014 1900 43.5 40.3 85 21 40 49
21 2014 10 24 10/24/2014 1800 44 40.1 83 24 47 64
22 2014 10 24 10/24/2014 1700 47.7 38.8 88 24 45 57
23 2014 10 24 10/24/2014 1600 46.5 37 94 15 34 82
24 2014 10 24 10/24/2014 1500 44.8 36.3 96 18 39 95
1 2014 10 24 10/24/2014 1400 43.1 35.1 97 20 36 96